Mahtomedi, Minnesota
Current Conditions -  °F | °C
As of 4:31 AM on Tuesday 27 Jan 2015 (Local Time) from K21D Reporting Station
Overcast Overcast  
Wind Chill: 27°   Ceiling: 2200
Heat Index: 32°   Visibility: 10mi
Dew Point: 28°   Wind: 5mph
Humidity: 87%   Direction: 30°NNE
Pressure: 30.08"   Gusts: NA
Location:  45.051°N, 92.9612°W
Report Text: K21D 271031Z AUTO 03004KT 10SM OVC022 00/M02 A3008 RMK AO2
Loading
Personal Weather Stations






























Interactive Weather Map New forecast layout! Learn more

10-Day Weather Forecast

Advertisements
Track Severe Weather on mobile